createdAt,value
2022-12-19T00:00:31.864Z,43.31
2022-12-19T00:01:31.916Z,46.68
2022-12-19T00:02:32.015Z,51.88
2022-12-19T00:03:31.999Z,47.87
2022-12-19T00:04:31.860Z,43.54
2022-12-19T00:05:31.828Z,43.67
2022-12-19T00:06:31.818Z,47.65
2022-12-19T00:07:31.878Z,54.28
2022-12-19T00:08:31.804Z,57.79
2022-12-19T00:09:32.170Z,59.06
2022-12-19T00:10:31.788Z,61.98
2022-12-19T00:11:31.788Z,61.33
2022-12-19T00:12:31.769Z,60.09
2022-12-19T00:13:33.683Z,59.02
2022-12-19T00:14:32.788Z,58.16
2022-12-19T00:15:31.754Z,58.21
2022-12-19T00:16:31.768Z,61.01
2022-12-19T00:17:31.737Z,59.39
2022-12-19T00:18:31.741Z,58.15
2022-12-19T00:19:31.756Z,58.13
2022-12-19T00:20:31.717Z,58.10
2022-12-19T00:21:32.090Z,58.09
2022-12-19T00:22:31.711Z,58.06
2022-12-19T00:23:31.766Z,58.46
2022-12-19T00:24:31.714Z,58.38
2022-12-19T00:25:31.685Z,58.60
2022-12-19T00:26:31.668Z,59.02
2022-12-19T00:27:31.662Z,62.85
2022-12-19T00:28:31.650Z,59.22
2022-12-19T00:29:31.683Z,59.44
2022-12-19T00:30:31.645Z,60.09
2022-12-19T00:31:31.705Z,63.64
2022-12-19T00:32:31.634Z,60.77
2022-12-19T00:33:31.623Z,60.71
2022-12-19T00:34:32.017Z,60.77
2022-12-19T00:35:32.612Z,61.14
2022-12-19T00:36:31.608Z,62.47
2022-12-19T00:37:31.596Z,60.85
2022-12-19T00:38:31.585Z,60.52
2022-12-19T00:39:31.678Z,60.48
2022-12-19T00:40:31.566Z,60.53
2022-12-19T00:41:31.544Z,60.30
2022-12-19T00:42:32.552Z,60.36
2022-12-19T00:43:31.556Z,60.50
2022-12-19T00:44:31.566Z,60.29
2022-12-19T00:45:31.603Z,60.44
2022-12-19T00:46:31.549Z,60.42
2022-12-19T00:47:31.533Z,60.29
2022-12-19T00:48:31.515Z,60.18
2022-12-19T00:49:31.545Z,60.29
2022-12-19T00:50:31.501Z,60.22
2022-12-19T00:51:31.508Z,60.56
2022-12-19T00:52:31.487Z,42.28
2022-12-19T00:53:31.483Z,52.56
2022-12-19T00:54:31.564Z,47.93
2022-12-19T00:55:31.542Z,44.35
2022-12-19T00:56:31.455Z,44.57
2022-12-19T00:57:31.456Z,44.05
2022-12-19T00:58:35.284Z,49.51
2022-12-19T00:59:32.469Z,42.91
2022-12-19T01:00:31.613Z,44.96
2022-12-19T01:01:31.566Z,44.96
2022-12-19T01:02:31.534Z,51.09
2022-12-19T01:03:31.405Z,46.67
2022-12-19T01:04:34.482Z,43.09
2022-12-19T01:05:32.395Z,42.86
2022-12-19T01:06:31.391Z,48.46
2022-12-19T01:07:31.399Z,43.08
2022-12-19T01:08:31.390Z,44.43
2022-12-19T01:09:31.366Z,46.45
2022-12-19T01:10:31.380Z,43.63
2022-12-19T01:11:31.434Z,45.47
2022-12-19T01:12:31.343Z,48.87
2022-12-19T01:13:31.409Z,44.12
2022-12-19T01:14:31.325Z,44.54
2022-12-19T01:15:31.353Z,44.39
2022-12-19T01:16:31.358Z,44.84
2022-12-19T01:17:31.308Z,44.93
2022-12-19T01:18:31.300Z,45.47
2022-12-19T01:19:31.295Z,50.95
2022-12-19T01:20:31.311Z,56.31
2022-12-19T01:21:31.279Z,55.93
2022-12-19T01:22:31.273Z,58.98
2022-12-19T01:23:31.282Z,58.50
2022-12-19T01:24:31.257Z,58.08
2022-12-19T01:25:31.289Z,58.67
2022-12-19T01:26:31.246Z,59.43
2022-12-19T01:27:31.316Z,60.70
2022-12-19T01:28:31.233Z,60.96
2022-12-19T01:29:31.219Z,61.15
2022-12-19T01:30:31.245Z,61.21
2022-12-19T01:31:31.226Z,61.05
2022-12-19T01:32:31.200Z,61.02
2022-12-19T01:33:31.195Z,60.61
2022-12-19T01:34:31.191Z,60.49
2022-12-19T01:35:31.230Z,59.81
2022-12-19T01:36:31.175Z,60.69
2022-12-19T01:37:31.169Z,59.64
2022-12-19T01:38:31.163Z,59.92
2022-12-19T01:39:31.185Z,59.96
2022-12-19T01:40:31.175Z,60.54
2022-12-19T01:41:31.137Z,64.27
2022-12-19T01:42:31.140Z,60.45
2022-12-19T01:43:31.202Z,61.09
2022-12-19T01:44:31.132Z,60.51
2022-12-19T01:45:34.275Z,60.01
2022-12-19T01:46:32.161Z,64.34
2022-12-19T01:47:31.101Z,60.10
2022-12-19T01:48:31.091Z,60.18
2022-12-19T01:49:31.081Z,60.21
2022-12-19T01:50:31.102Z,61.19
2022-12-19T01:51:31.072Z,61.65
2022-12-19T01:52:31.066Z,60.15
2022-12-19T01:53:31.066Z,60.12
2022-12-19T01:54:31.061Z,60.03
2022-12-19T01:55:31.088Z,61.09
2022-12-19T01:56:31.003Z,61.73
2022-12-19T01:57:30.981Z,60.19
2022-12-19T01:58:31.995Z,59.80
2022-12-19T01:59:30.980Z,60.41
2022-12-19T02:00:31.011Z,63.20
2022-12-19T02:01:31.076Z,59.73
2022-12-19T02:02:31.051Z,60.01
2022-12-19T02:03:30.953Z,59.71
2022-12-19T02:04:32.249Z,62.86
2022-12-19T02:05:30.975Z,60.06
2022-12-19T02:06:30.939Z,59.64
2022-12-19T02:07:30.929Z,59.66
2022-12-19T02:08:30.915Z,59.50
2022-12-19T02:09:30.912Z,59.48
2022-12-19T02:10:30.939Z,61.77
2022-12-19T02:11:30.908Z,60.90
2022-12-19T02:12:30.890Z,59.15
2022-12-19T02:13:30.887Z,59.10
2022-12-19T02:14:30.886Z,59.04
2022-12-19T02:15:30.979Z,58.98
2022-12-19T02:16:30.920Z,59.36
2022-12-19T02:17:30.880Z,58.84
2022-12-19T02:18:30.863Z,62.00
2022-12-19T02:19:30.843Z,58.06
2022-12-19T02:20:30.860Z,58.30
2022-12-19T02:21:30.838Z,58.63
2022-12-19T02:22:30.822Z,58.82
2022-12-19T02:23:30.812Z,60.15
2022-12-19T02:24:30.823Z,58.36
2022-12-19T02:25:30.834Z,58.49
2022-12-19T02:26:30.800Z,60.17
2022-12-19T02:27:31.834Z,59.11
2022-12-19T02:28:30.787Z,60.10
2022-12-19T02:29:30.779Z,58.48
2022-12-19T02:30:30.802Z,60.64
2022-12-19T02:31:30.900Z,58.50
2022-12-19T02:32:30.773Z,58.95
2022-12-19T02:33:30.757Z,58.50
2022-12-19T02:34:30.754Z,58.51
2022-12-19T02:35:30.755Z,58.39
2022-12-19T02:36:30.762Z,58.39
2022-12-19T02:37:30.855Z,59.12
2022-12-19T02:38:30.729Z,64.92
2022-12-19T02:39:30.715Z,58.45
2022-12-19T02:40:30.703Z,58.90
2022-12-19T02:41:30.740Z,59.20
2022-12-19T02:42:30.722Z,59.46
2022-12-19T02:43:30.712Z,59.67
2022-12-19T02:44:30.683Z,59.40
2022-12-19T02:45:30.681Z,59.39
2022-12-19T02:46:30.730Z,59.32
2022-12-19T02:47:30.736Z,59.34
2022-12-19T02:48:30.648Z,60.06
2022-12-19T02:49:31.348Z,59.52
2022-12-19T02:50:30.688Z,59.38
2022-12-19T02:51:30.665Z,59.30
2022-12-19T02:52:30.628Z,59.49
2022-12-19T02:53:30.617Z,59.12
2022-12-19T02:54:30.617Z,58.97
2022-12-19T02:55:30.602Z,59.30
2022-12-19T02:56:30.630Z,59.08
2022-12-19T02:57:30.605Z,59.24
2022-12-19T02:58:30.590Z,59.53
2022-12-19T02:59:30.592Z,59.63
2022-12-19T03:00:30.578Z,59.24
2022-12-19T03:01:30.692Z,60.38
2022-12-19T03:02:30.669Z,59.33
2022-12-19T03:03:30.697Z,60.00
2022-12-19T03:04:30.549Z,59.07
2022-12-19T03:05:30.542Z,58.98
2022-12-19T03:06:30.557Z,58.88
2022-12-19T03:07:30.558Z,58.88
2022-12-19T03:08:30.524Z,60.17
2022-12-19T03:09:30.515Z,59.85
2022-12-19T03:10:30.513Z,58.90
2022-12-19T03:11:30.531Z,59.89
2022-12-19T03:12:30.514Z,59.70
2022-12-19T03:13:30.486Z,58.83
2022-12-19T03:14:30.489Z,58.61
2022-12-19T03:15:30.472Z,58.88
2022-12-19T03:16:30.558Z,58.51
2022-12-19T03:17:30.483Z,62.27
2022-12-19T03:18:30.449Z,59.36
2022-12-19T03:19:30.528Z,58.49
2022-12-19T03:20:30.432Z,58.20
2022-12-19T03:21:30.460Z,58.21
2022-12-19T03:22:30.424Z,57.97
2022-12-19T03:23:30.415Z,57.89
2022-12-19T03:24:30.409Z,59.23
2022-12-19T03:25:30.412Z,62.37
2022-12-19T03:26:30.425Z,58.80
2022-12-19T03:27:30.406Z,57.84
2022-12-19T03:28:30.408Z,57.67
2022-12-19T03:29:30.375Z,57.69
2022-12-19T03:30:30.380Z,58.35
2022-12-19T03:31:30.401Z,60.99
2022-12-19T03:32:30.361Z,59.30
2022-12-19T03:33:30.358Z,59.16
2022-12-19T03:34:30.346Z,58.45
2022-12-19T03:35:30.423Z,58.35
2022-12-19T03:36:30.353Z,57.69
2022-12-19T03:37:30.320Z,57.60
2022-12-19T03:38:30.315Z,58.15
2022-12-19T03:39:30.326Z,57.82
2022-12-19T03:40:30.304Z,62.10
2022-12-19T03:41:30.428Z,56.86
2022-12-19T03:42:30.310Z,57.00
2022-12-19T03:43:30.274Z,58.00
2022-12-19T03:44:30.278Z,56.92
2022-12-19T03:45:30.258Z,58.10
2022-12-19T03:46:30.311Z,58.56
2022-12-19T03:47:30.273Z,58.79
2022-12-19T03:48:30.247Z,56.91
2022-12-19T03:49:30.245Z,56.40
2022-12-19T03:50:30.231Z,56.98
2022-12-19T03:51:30.296Z,57.55
2022-12-19T03:52:30.242Z,56.91
2022-12-19T03:53:30.212Z,57.52
2022-12-19T03:54:30.201Z,56.54
2022-12-19T03:55:30.195Z,57.42
2022-12-19T03:56:30.189Z,60.65
2022-12-19T03:57:30.216Z,55.84
2022-12-19T03:58:30.205Z,57.65
2022-12-19T03:59:30.166Z,56.75
2022-12-19T04:00:30.162Z,56.38
2022-12-19T04:01:30.258Z,57.06
2022-12-19T04:02:30.195Z,57.97
2022-12-19T04:03:30.162Z,58.84
2022-12-19T04:04:30.132Z,59.52
2022-12-19T04:05:30.124Z,59.51
2022-12-19T04:06:30.127Z,58.77
2022-12-19T04:07:30.205Z,61.28
2022-12-19T04:08:30.100Z,58.85
2022-12-19T04:09:30.091Z,57.33
2022-12-19T04:10:30.096Z,62.53
2022-12-19T04:11:30.080Z,58.65
2022-12-19T04:12:30.097Z,58.65
2022-12-19T04:13:30.069Z,58.79
2022-12-19T04:14:30.057Z,57.01
2022-12-19T04:15:30.110Z,57.96
2022-12-19T04:16:30.055Z,58.99
2022-12-19T04:17:30.063Z,61.99
2022-12-19T04:18:30.029Z,58.03
2022-12-19T04:19:30.039Z,59.23
2022-12-19T04:20:30.032Z,58.51
2022-12-19T04:21:30.007Z,57.34
2022-12-19T04:22:30.042Z,56.83
2022-12-19T04:23:30.072Z,58.08
2022-12-19T04:24:29.990Z,58.02
2022-12-19T04:25:29.976Z,60.56
2022-12-19T04:26:29.984Z,61.60
2022-12-19T04:27:30.001Z,58.01
2022-12-19T04:28:29.956Z,58.99
2022-12-19T04:29:29.955Z,59.44
2022-12-19T04:30:29.964Z,58.92
2022-12-19T04:31:30.973Z,59.11
2022-12-19T04:32:30.066Z,58.51
2022-12-19T04:33:29.928Z,61.51
2022-12-19T04:34:29.923Z,58.63
2022-12-19T04:35:29.943Z,58.86
2022-12-19T04:36:29.905Z,58.99
2022-12-19T04:37:29.921Z,59.03
2022-12-19T04:38:29.896Z,58.02
2022-12-19T04:39:29.958Z,58.61
2022-12-19T04:40:29.880Z,57.20
2022-12-19T04:41:29.873Z,59.14
2022-12-19T04:42:29.893Z,58.13
2022-12-19T04:43:29.848Z,59.29
2022-12-19T04:44:29.843Z,59.36
2022-12-19T04:45:29.853Z,59.36
2022-12-19T04:46:29.870Z,58.67
2022-12-19T04:47:29.893Z,59.10
2022-12-19T04:48:29.821Z,59.48
2022-12-19T04:49:29.810Z,61.68
2022-12-19T04:50:29.822Z,59.24
2022-12-19T04:51:29.794Z,59.69
2022-12-19T04:52:30.830Z,59.14
2022-12-19T04:53:29.782Z,60.22
2022-12-19T04:54:29.775Z,58.42
2022-12-19T04:55:29.845Z,58.48
2022-12-19T04:56:29.768Z,59.95
2022-12-19T04:57:29.794Z,58.81
2022-12-19T04:58:29.743Z,58.52
2022-12-19T04:59:30.743Z,58.18
2022-12-19T05:00:29.754Z,60.47
2022-12-19T05:01:29.871Z,59.06
2022-12-19T05:02:29.966Z,60.28
2022-12-19T05:03:29.769Z,60.69
2022-12-19T05:04:29.709Z,59.41
2022-12-19T05:05:29.730Z,58.94
2022-12-19T05:06:29.689Z,59.23
2022-12-19T05:07:29.695Z,59.04
2022-12-19T05:08:29.714Z,59.67
2022-12-19T05:09:29.678Z,58.91
2022-12-19T05:10:29.664Z,58.67
2022-12-19T05:11:29.745Z,58.70
2022-12-19T05:12:29.657Z,60.36
2022-12-19T05:13:29.672Z,59.60
2022-12-19T05:14:29.655Z,59.75
2022-12-19T05:15:29.651Z,59.33
2022-12-19T05:16:29.645Z,59.12
2022-12-19T05:17:29.618Z,64.52
2022-12-19T05:18:29.635Z,59.59
2022-12-19T05:19:29.595Z,60.66
2022-12-19T05:20:29.598Z,59.69
2022-12-19T05:21:29.587Z,59.98
2022-12-19T05:22:29.578Z,59.16
2022-12-19T05:23:29.636Z,59.22
2022-12-19T05:24:29.564Z,59.59
2022-12-19T05:25:29.560Z,59.45
2022-12-19T05:26:29.552Z,59.64
2022-12-19T05:27:29.613Z,59.41
2022-12-19T05:28:29.557Z,58.79
2022-12-19T05:29:29.529Z,63.43
2022-12-19T05:30:29.520Z,59.52
2022-12-19T05:31:29.586Z,60.16
2022-12-19T05:32:29.506Z,60.17
2022-12-19T05:33:29.523Z,59.58
2022-12-19T05:34:29.493Z,58.85
2022-12-19T05:35:29.473Z,56.08
2022-12-19T05:36:32.572Z,54.24
2022-12-19T05:37:30.479Z,57.78
2022-12-19T05:38:29.503Z,53.08
2022-12-19T05:39:29.461Z,53.99
2022-12-19T05:40:29.447Z,54.85
2022-12-19T05:41:29.441Z,57.57
2022-12-19T05:42:29.434Z,54.88
2022-12-19T05:43:29.533Z,57.89
2022-12-19T05:44:29.428Z,52.87
2022-12-19T05:45:29.415Z,56.22
2022-12-19T05:46:29.418Z,59.86
2022-12-19T05:47:29.401Z,54.63
2022-12-19T05:48:29.428Z,54.22
2022-12-19T05:49:29.388Z,56.52
2022-12-19T05:50:29.373Z,58.16
2022-12-19T05:51:29.367Z,55.91
2022-12-19T05:52:29.357Z,58.10
2022-12-19T05:53:29.375Z,55.43
2022-12-19T05:54:29.347Z,57.76
2022-12-19T05:55:29.341Z,62.75
2022-12-19T05:56:29.348Z,52.61
2022-12-19T05:57:29.328Z,55.71
2022-12-19T05:58:29.354Z,51.12
2022-12-19T05:59:29.320Z,56.01
2022-12-19T06:00:29.315Z,56.75
2022-12-19T06:01:29.343Z,60.02
2022-12-19T06:02:29.430Z,60.31
2022-12-19T06:03:29.367Z,57.92
2022-12-19T06:04:29.324Z,56.13
2022-12-19T06:05:29.264Z,57.14
2022-12-19T06:06:29.257Z,54.85
2022-12-19T06:07:29.245Z,57.24
2022-12-19T06:08:29.238Z,60.26
2022-12-19T06:09:29.260Z,58.05
2022-12-19T06:10:29.248Z,53.81
2022-12-19T06:11:29.235Z,52.31
2022-12-19T06:12:29.218Z,56.71
2022-12-19T06:13:29.208Z,56.39
2022-12-19T06:14:29.220Z,57.09
2022-12-19T06:15:29.264Z,52.15
2022-12-19T06:16:29.257Z,53.29
2022-12-19T06:17:29.183Z,56.70
2022-12-19T06:18:29.193Z,63.16
2022-12-19T06:19:29.193Z,53.82
2022-12-19T06:20:29.168Z,57.35
2022-12-19T06:21:29.150Z,53.99
2022-12-19T06:22:29.136Z,52.74
2022-12-19T06:23:29.139Z,57.23
2022-12-19T06:24:29.172Z,55.75
2022-12-19T06:25:29.120Z,53.30
2022-12-19T06:26:29.123Z,57.40
2022-12-19T06:27:29.115Z,57.45
2022-12-19T06:28:29.095Z,53.88
2022-12-19T06:29:29.179Z,56.61
2022-12-19T06:30:29.088Z,56.82
2022-12-19T06:31:29.241Z,52.23
2022-12-19T06:32:31.354Z,52.33
2022-12-19T06:33:30.059Z,53.91
2022-12-19T06:35:02.263Z,54.36
2022-12-19T06:35:31.051Z,57.52
2022-12-19T06:36:29.042Z,57.55
2022-12-19T06:37:29.039Z,56.13
2022-12-19T06:38:29.022Z,54.84
2022-12-19T06:39:29.055Z,57.78
2022-12-19T06:40:29.025Z,54.72
2022-12-19T06:41:29.015Z,57.98
2022-12-19T06:42:29.002Z,55.55
2022-12-19T06:43:29.007Z,56.01
2022-12-19T06:44:29.013Z,53.50
2022-12-19T06:45:29.045Z,60.54
2022-12-19T06:46:28.973Z,56.85
2022-12-19T06:47:29.097Z,56.41
2022-12-19T06:48:28.960Z,54.51
2022-12-19T06:49:28.976Z,53.84
2022-12-19T06:50:28.940Z,55.81
2022-12-19T06:51:28.932Z,56.73
2022-12-19T06:52:28.925Z,58.63
2022-12-19T06:53:28.926Z,51.52
2022-12-19T06:54:28.937Z,54.52
2022-12-19T06:55:28.899Z,57.08
2022-12-19T06:56:28.899Z,52.54
2022-12-19T06:57:28.899Z,55.66
2022-12-19T06:58:28.880Z,51.97
2022-12-19T06:59:28.900Z,59.67
2022-12-19T07:00:28.872Z,56.83
2022-12-19T07:01:28.901Z,52.92
2022-12-19T07:02:28.935Z,53.39
2022-12-19T07:03:28.919Z,51.64
2022-12-19T07:04:28.864Z,49.02
2022-12-19T07:05:28.829Z,55.51
2022-12-19T07:06:28.828Z,52.16
2022-12-19T07:07:28.867Z,55.41
2022-12-19T07:08:28.813Z,51.97
2022-12-19T07:09:28.827Z,55.79
2022-12-19T07:10:28.812Z,50.82
2022-12-19T07:11:28.788Z,55.49
2022-12-19T07:12:28.783Z,51.80
2022-12-19T07:13:28.779Z,47.33
2022-12-19T07:14:28.796Z,56.61
2022-12-19T07:15:28.763Z,51.83
2022-12-19T07:16:28.783Z,54.82
2022-12-19T07:17:28.743Z,53.64
2022-12-19T07:18:28.733Z,50.39
2022-12-19T07:19:28.846Z,56.88
2022-12-19T07:20:28.717Z,56.47
2022-12-19T07:21:28.736Z,55.14
2022-12-19T07:22:28.711Z,54.10
2022-12-19T07:23:28.694Z,55.44
2022-12-19T07:24:28.733Z,54.60
2022-12-19T07:25:28.684Z,49.95
2022-12-19T07:26:28.677Z,57.43
2022-12-19T07:27:35.497Z,52.68
2022-12-19T07:28:30.666Z,55.38
2022-12-19T07:29:28.683Z,55.35
2022-12-19T07:30:28.662Z,53.48
2022-12-19T07:31:28.787Z,52.44
2022-12-19T07:32:28.630Z,52.33
2022-12-19T07:33:28.644Z,56.64
2022-12-19T07:34:28.650Z,54.51
2022-12-19T07:35:28.724Z,54.53
2022-12-19T07:36:28.602Z,53.97
2022-12-19T07:37:28.606Z,56.91
2022-12-19T07:38:28.590Z,50.55
2022-12-19T07:39:28.612Z,54.98
2022-12-19T07:40:28.600Z,56.70
2022-12-19T07:41:28.573Z,54.39
2022-12-19T07:42:32.501Z,55.94
2022-12-19T07:43:29.653Z,55.76
2022-12-19T07:44:28.599Z,50.24
2022-12-19T07:45:28.580Z,54.90
2022-12-19T07:46:28.528Z,54.25
2022-12-19T07:47:28.524Z,54.52
2022-12-19T07:48:28.521Z,56.47
2022-12-19T07:49:28.532Z,48.33
2022-12-19T07:50:28.588Z,51.33
2022-12-19T07:51:28.599Z,53.60
2022-12-19T07:52:28.488Z,54.20
2022-12-19T07:53:28.520Z,54.10
2022-12-19T07:54:28.476Z,56.32
2022-12-19T07:55:28.484Z,54.23
2022-12-19T07:56:28.458Z,50.51
2022-12-19T07:57:28.475Z,55.04
2022-12-19T07:58:28.446Z,52.89
2022-12-19T07:59:32.300Z,54.20
2022-12-19T08:00:30.465Z,53.98
2022-12-19T08:02:29.536Z,54.27
2022-12-19T08:02:40.954Z,52.63
2022-12-19T08:03:28.488Z,54.60
2022-12-19T08:04:28.406Z,57.03
2022-12-19T08:05:28.411Z,50.42
2022-12-19T08:06:28.380Z,55.60
2022-12-19T08:07:28.454Z,53.06
2022-12-19T08:08:28.377Z,58.37
2022-12-19T08:09:28.388Z,58.38
2022-12-19T08:10:28.438Z,59.10
2022-12-19T08:11:28.337Z,58.42
2022-12-19T08:12:28.333Z,61.48
2022-12-19T08:13:31.134Z,61.51
2022-12-19T08:14:30.314Z,61.73
2022-12-19T08:15:28.327Z,61.52
2022-12-19T08:16:28.356Z,59.50
2022-12-19T08:17:28.356Z,58.87
2022-12-19T08:18:28.294Z,60.44
2022-12-19T08:19:28.283Z,56.04
2022-12-19T08:20:28.284Z,56.78
2022-12-19T08:21:28.268Z,52.21
2022-12-19T08:22:28.273Z,51.29
2022-12-19T08:23:28.342Z,57.39
2022-12-19T08:24:28.238Z,50.71
2022-12-19T08:25:28.256Z,60.47
2022-12-19T08:26:31.275Z,52.99
2022-12-19T08:27:30.215Z,57.03
2022-12-19T08:28:28.204Z,59.01
2022-12-19T08:29:28.202Z,55.32
2022-12-19T08:30:28.390Z,52.90
2022-12-19T08:31:28.189Z,54.72
2022-12-19T08:32:28.176Z,52.26
2022-12-19T08:33:28.169Z,57.64
2022-12-19T08:34:28.155Z,58.66
2022-12-19T08:35:28.178Z,60.08
2022-12-19T08:36:28.151Z,60.18
2022-12-19T08:37:28.134Z,61.68
2022-12-19T08:38:28.127Z,61.44
2022-12-19T08:39:28.203Z,61.29
2022-12-19T08:40:28.143Z,61.91
2022-12-19T08:41:28.157Z,63.18
2022-12-19T08:42:28.106Z,61.39
2022-12-19T08:43:28.097Z,60.59
2022-12-19T08:44:28.081Z,60.47
2022-12-19T08:45:28.106Z,60.80
2022-12-19T08:46:28.127Z,61.47
2022-12-19T08:47:28.065Z,60.49
2022-12-19T08:48:28.062Z,60.84
2022-12-19T08:49:28.048Z,60.18
2022-12-19T08:50:28.067Z,54.31
2022-12-19T08:51:28.025Z,53.37
2022-12-19T08:52:28.031Z,53.94
2022-12-19T08:53:28.028Z,53.10
2022-12-19T08:54:28.006Z,55.87
2022-12-19T08:55:28.163Z,52.47
2022-12-19T08:56:27.990Z,53.20
2022-12-19T08:57:27.980Z,54.79
2022-12-19T08:58:27.975Z,55.12
2022-12-19T08:59:31.508Z,53.02
2022-12-19T09:00:27.995Z,53.64
2022-12-19T09:01:28.001Z,54.68
2022-12-19T09:02:28.126Z,52.57
2022-12-19T09:03:32.050Z,52.14
2022-12-19T09:05:55.470Z,54.11
2022-12-19T09:06:03.649Z,54.48
2022-12-19T09:06:29.224Z,59.50
2022-12-19T09:07:27.924Z,56.02
2022-12-19T09:08:27.905Z,54.02
2022-12-19T09:09:27.898Z,54.60
2022-12-19T09:10:27.913Z,57.12
2022-12-19T09:11:28.016Z,55.48
2022-12-19T09:12:27.873Z,55.38
2022-12-19T09:13:27.870Z,56.16
2022-12-19T09:14:27.868Z,54.03
2022-12-19T09:15:27.893Z,53.37
2022-12-19T09:16:28.025Z,57.32
2022-12-19T09:17:27.877Z,55.82
2022-12-19T09:18:27.835Z,56.02
2022-12-19T09:19:27.856Z,59.70
2022-12-19T09:20:27.851Z,61.91
2022-12-19T09:21:27.853Z,62.52
2022-12-19T09:22:29.494Z,61.78
2022-12-19T09:23:27.796Z,59.55
2022-12-19T09:24:27.790Z,58.78
2022-12-19T09:25:27.815Z,58.54
2022-12-19T09:26:27.781Z,58.37
2022-12-19T09:27:28.835Z,59.23
2022-12-19T09:28:28.322Z,60.10
2022-12-19T09:29:33.538Z,59.79
2022-12-19T09:30:30.014Z,58.46
2022-12-19T09:31:27.784Z,59.13
2022-12-19T09:32:27.739Z,60.99
2022-12-19T09:33:27.726Z,64.43
2022-12-19T09:34:36.956Z,59.23
2022-12-19T09:35:30.664Z,60.50
2022-12-19T09:36:28.708Z,60.82
2022-12-19T09:37:27.685Z,60.78
2022-12-19T09:38:27.693Z,60.18
2022-12-19T09:39:27.697Z,61.20
2022-12-19T09:40:27.703Z,60.29
2022-12-19T09:41:27.668Z,60.62
2022-12-19T09:42:27.660Z,60.41
2022-12-19T09:43:27.726Z,60.61
2022-12-19T09:44:27.696Z,61.17
2022-12-19T09:45:31.607Z,62.84
2022-12-19T09:46:28.707Z,61.04
2022-12-19T09:47:27.604Z,61.06
2022-12-19T09:48:27.618Z,61.75
2022-12-19T09:49:27.601Z,62.41
2022-12-19T09:50:27.612Z,61.36
2022-12-19T09:51:27.625Z,61.43
2022-12-19T09:52:29.793Z,59.68
2022-12-19T09:53:28.567Z,60.62
2022-12-19T09:54:27.560Z,60.46
2022-12-19T09:55:27.571Z,60.98
2022-12-19T09:56:27.576Z,62.06
2022-12-19T09:57:27.546Z,61.71
2022-12-19T09:58:27.576Z,61.70
2022-12-19T09:59:28.277Z,63.02
2022-12-19T10:00:28.513Z,61.98
2022-12-19T10:01:27.707Z,60.03
2022-12-19T10:02:27.732Z,53.10
2022-12-19T10:03:27.561Z,52.91
2022-12-19T10:04:27.477Z,55.81
2022-12-19T10:06:43.272Z,52.36
2022-12-19T10:07:08.829Z,54.01
2022-12-19T10:07:53.015Z,53.70
2022-12-19T10:08:29.454Z,54.26
2022-12-19T10:10:50.378Z,56.03
2022-12-19T10:12:36.376Z,56.65
2022-12-19T10:12:40.176Z,51.69
2022-12-19T10:12:45.316Z,55.27
2022-12-19T10:13:28.411Z,59.01
2022-12-19T10:14:27.406Z,56.18
2022-12-19T10:15:27.474Z,52.38
2022-12-19T10:16:27.455Z,52.93
2022-12-19T10:17:27.393Z,54.61
2022-12-19T10:18:27.381Z,59.43
2022-12-19T10:19:27.378Z,53.15
2022-12-19T10:20:27.399Z,53.19
2022-12-19T10:21:50.757Z,53.46
2022-12-19T10:22:29.351Z,57.58
2022-12-19T10:23:27.357Z,57.72
2022-12-19T10:24:33.200Z,55.82
2022-12-19T10:25:29.343Z,50.25
2022-12-19T10:26:27.402Z,55.97
2022-12-19T10:27:27.310Z,52.37
2022-12-19T10:28:27.326Z,55.65
2022-12-19T10:29:27.323Z,57.14
2022-12-19T10:30:27.840Z,56.49
2022-12-19T10:31:27.476Z,54.28
2022-12-19T10:32:27.282Z,54.37
2022-12-19T10:33:27.350Z,55.67
2022-12-19T10:34:27.263Z,51.57
2022-12-19T10:35:27.253Z,59.83
2022-12-19T10:37:03.950Z,53.59
2022-12-19T10:37:40.683Z,54.36
2022-12-19T10:38:29.224Z,57.34
2022-12-19T10:39:27.213Z,58.42
2022-12-19T10:40:27.918Z,55.42
2022-12-19T10:41:27.235Z,52.58
2022-12-19T10:42:27.201Z,56.04
2022-12-19T10:43:33.753Z,55.63
2022-12-19T10:44:29.209Z,55.27
2022-12-19T10:45:27.176Z,57.65
2022-12-19T10:46:27.231Z,53.62
2022-12-19T10:47:27.240Z,57.93
2022-12-19T10:48:30.520Z,50.15
2022-12-19T10:49:27.851Z,55.00
2022-12-19T10:50:27.287Z,58.67
2022-12-19T10:51:27.181Z,54.89
2022-12-19T10:52:27.136Z,58.36
2022-12-19T10:53:27.107Z,55.34
2022-12-19T10:54:33.437Z,54.33
2022-12-19T10:55:29.110Z,56.09
2022-12-19T10:56:33.224Z,54.59
2022-12-19T10:57:28.086Z,55.38
2022-12-19T10:58:27.121Z,56.55
2022-12-19T10:59:27.061Z,58.92
2022-12-19T11:00:27.059Z,61.16
2022-12-19T11:01:28.264Z,62.66
2022-12-19T11:02:27.173Z,60.45
2022-12-19T11:03:27.277Z,59.94
2022-12-19T11:04:27.179Z,61.73
2022-12-19T11:05:27.160Z,59.46
2022-12-19T11:06:27.026Z,60.28
2022-12-19T11:07:27.022Z,61.96
2022-12-19T11:08:27.010Z,59.41
2022-12-19T11:09:27.008Z,59.92
2022-12-19T11:11:19.298Z,58.70
2022-12-19T11:12:35.562Z,58.72
2022-12-19T11:16:39.709Z,59.60
2022-12-19T11:18:44.538Z,61.17
2022-12-19T11:19:01.776Z,58.80
2022-12-19T11:19:13.259Z,60.06
2022-12-19T11:22:26.453Z,60.72
2022-12-19T11:24:21.305Z,60.42
2022-12-19T11:27:17.271Z,60.89
2022-12-19T11:29:15.062Z,57.12
2022-12-19T11:29:25.558Z,55.57
2022-12-19T11:29:25.719Z,58.31
2022-12-19T11:29:43.950Z,59.05
2022-12-19T11:29:44.962Z,58.27
2022-12-19T11:30:35.950Z,56.61
2022-12-19T11:30:47.106Z,56.33
2022-12-19T11:30:48.175Z,59.61
2022-12-19T11:30:48.365Z,55.26
2022-12-19T11:30:59.581Z,57.81
2022-12-19T11:31:51.444Z,53.13
2022-12-19T11:32:40.274Z,57.91
2022-12-19T11:33:28.886Z,58.11
2022-12-19T11:34:26.802Z,56.51
2022-12-19T11:35:37.173Z,55.34
2022-12-19T11:36:27.788Z,55.17
2022-12-19T11:37:26.824Z,58.15
2022-12-19T11:38:26.791Z,54.16
2022-12-19T11:39:26.765Z,53.47
2022-12-19T11:40:26.768Z,55.70
2022-12-19T11:41:26.757Z,58.70
2022-12-19T11:42:26.787Z,56.14
2022-12-19T11:43:43.785Z,54.02
2022-12-19T11:44:28.747Z,56.44
2022-12-19T11:45:26.716Z,56.22
2022-12-19T11:46:26.709Z,55.37
2022-12-19T11:47:26.726Z,57.54
2022-12-19T11:48:26.718Z,58.94
2022-12-19T11:49:26.746Z,59.48
2022-12-19T11:50:26.688Z,60.12
2022-12-19T11:51:26.755Z,62.22
2022-12-19T11:53:28.676Z,61.83
2022-12-19T11:54:26.646Z,61.17
2022-12-19T11:55:26.643Z,60.50
2022-12-19T11:56:26.633Z,59.18
2022-12-19T11:57:26.665Z,60.02
2022-12-19T11:58:26.626Z,59.26
2022-12-19T11:59:26.617Z,59.58
2022-12-19T12:00:26.613Z,65.29
2022-12-19T12:01:26.650Z,59.78
2022-12-19T12:02:26.618Z,60.30
2022-12-19T12:03:26.667Z,63.32
2022-12-19T12:04:26.622Z,60.09
2022-12-19T12:05:26.573Z,60.18
2022-12-19T12:06:31.265Z,61.62
2022-12-19T12:08:00.988Z,60.88
2022-12-19T12:11:11.742Z,61.24
2022-12-19T12:12:29.665Z,61.23
2022-12-19T12:14:35.511Z,62.09
2022-12-19T12:15:00.889Z,61.50
2022-12-19T12:21:17.197Z,57.76
2022-12-19T12:21:52.010Z,59.88
2022-12-19T12:25:05.397Z,56.74
2022-12-19T12:29:56.814Z,57.72
2022-12-19T12:31:00.803Z,56.54
2022-12-19T12:31:10.967Z,53.88
2022-12-19T12:31:11.209Z,53.52
2022-12-19T12:31:18.382Z,56.21
2022-12-19T12:31:23.616Z,57.23
2022-12-19T12:31:27.600Z,57.34
2022-12-19T12:31:43.411Z,57.13
2022-12-19T12:31:48.514Z,55.06
2022-12-19T12:31:48.721Z,57.17
2022-12-19T12:31:50.267Z,60.64
2022-12-19T12:31:52.361Z,59.68
2022-12-19T12:31:52.366Z,54.55
2022-12-19T12:31:52.736Z,57.70
2022-12-19T12:31:59.017Z,57.62
2022-12-19T12:35:09.576Z,55.98
2022-12-19T12:35:35.106Z,61.61
2022-12-19T12:35:40.929Z,54.22
2022-12-19T12:35:41.440Z,56.34
2022-12-19T12:38:29.301Z,57.11
2022-12-19T12:39:33.355Z,58.35
2022-12-19T12:40:28.318Z,53.66
2022-12-19T12:41:26.302Z,57.78
2022-12-19T12:42:26.293Z,55.95
2022-12-19T12:43:26.318Z,56.48
2022-12-19T12:44:32.568Z,56.13
2022-12-19T12:45:27.265Z,55.72
2022-12-19T12:46:26.347Z,58.80
2022-12-19T12:47:26.251Z,60.13
2022-12-19T12:48:26.278Z,59.64
2022-12-19T12:49:26.249Z,62.08
2022-12-19T12:50:26.230Z,62.50
2022-12-19T12:51:26.224Z,61.56
2022-12-19T12:52:26.217Z,59.54
2022-12-19T12:53:26.232Z,60.38
2022-12-19T12:54:26.212Z,60.19
2022-12-19T12:55:26.197Z,60.01
2022-12-19T12:56:26.199Z,59.02
2022-12-19T12:57:26.185Z,60.31
2022-12-19T12:58:26.214Z,60.03
2022-12-19T12:59:26.177Z,61.03